createdAt,value
2017-11-18T00:00:14.202Z,60.56
2017-11-18T00:00:47.214Z,60.37
2017-11-18T00:01:20.138Z,60.37
2017-11-18T00:01:53.082Z,60.37
2017-11-18T00:02:26.005Z,60.56
2017-11-18T00:02:59.022Z,60.37
2017-11-18T00:03:31.920Z,60.37
2017-11-18T00:04:05.062Z,60.56
2017-11-18T00:04:38.152Z,60.37
2017-11-18T00:05:11.466Z,60.46
2017-11-18T00:05:44.492Z,60.46
2017-11-18T00:06:17.672Z,60.27
2017-11-18T00:06:50.902Z,60.46
2017-11-18T00:07:24.118Z,60.27
2017-11-18T00:07:57.144Z,60.56
2017-11-18T00:08:30.097Z,60.56
2017-11-18T00:09:03.088Z,60.56
2017-11-18T00:09:36.098Z,60.46
2017-11-18T00:10:09.289Z,60.56
2017-11-18T00:10:42.204Z,60.27
2017-11-18T00:11:15.137Z,60.46
2017-11-18T00:11:48.077Z,60.27
2017-11-18T00:12:21.201Z,60.46
2017-11-18T00:12:54.261Z,60.27
2017-11-18T00:13:27.247Z,60.27
2017-11-18T00:14:00.398Z,60.27
2017-11-18T00:14:33.386Z,60.37
2017-11-18T00:15:06.510Z,60.27
2017-11-18T00:15:39.489Z,60.37
2017-11-18T00:16:12.546Z,60.66
2017-11-18T00:16:45.634Z,60.27
2017-11-18T00:17:18.614Z,60.46
2017-11-18T00:17:51.701Z,60.75
2017-11-18T00:18:24.757Z,60.37
2017-11-18T00:18:57.790Z,60.37
2017-11-18T00:19:30.905Z,60.66
2017-11-18T00:20:04.133Z,60.37
2017-11-18T00:20:37.052Z,60.75
2017-11-18T00:21:10.178Z,60.37
2017-11-18T00:21:43.089Z,60.46
2017-11-18T00:22:16.279Z,60.37
2017-11-18T00:22:49.562Z,60.56
2017-11-18T00:23:22.687Z,60.37
2017-11-18T00:23:55.942Z,60.46
2017-11-18T00:24:28.971Z,60.37
2017-11-18T00:25:02.084Z,60.37
2017-11-18T00:25:35.172Z,60.46
2017-11-18T00:26:08.189Z,60.37
2017-11-18T00:26:41.323Z,60.37
2017-11-18T00:27:14.374Z,60.37
2017-11-18T00:27:47.299Z,60.46
2017-11-18T00:28:20.285Z,60.37
2017-11-18T00:28:53.376Z,60.56
2017-11-18T00:29:26.527Z,60.46
2017-11-18T00:29:59.714Z,60.56
2017-11-18T00:30:32.833Z,60.46
2017-11-18T00:31:05.754Z,60.56
2017-11-18T00:31:38.710Z,60.56
2017-11-18T00:32:11.698Z,60.56
2017-11-18T00:32:44.917Z,60.27
2017-11-18T00:33:17.829Z,60.46
2017-11-18T00:33:50.887Z,60.27
2017-11-18T00:34:23.918Z,60.27
2017-11-18T00:34:57.130Z,60.56
2017-11-18T00:35:30.057Z,60.56
2017-11-18T00:36:03.174Z,60.37
2017-11-18T00:36:36.064Z,60.66
2017-11-18T00:37:09.224Z,60.37
2017-11-18T00:37:42.533Z,60.37
2017-11-18T00:38:15.586Z,60.37
2017-11-18T00:38:48.697Z,60.37
2017-11-18T00:39:21.755Z,60.56
2017-11-18T00:39:54.886Z,60.66
2017-11-18T00:40:28.037Z,60.37
2017-11-18T00:41:00.926Z,60.56
2017-11-18T00:41:34.182Z,60.37
2017-11-18T00:42:07.317Z,60.37
2017-11-18T00:42:40.528Z,60.37
2017-11-18T00:43:13.618Z,60.56
2017-11-18T00:43:46.573Z,60.37
2017-11-18T00:44:19.785Z,60.56
2017-11-18T00:44:52.897Z,60.37
2017-11-18T00:45:25.985Z,60.37
2017-11-18T00:45:59.101Z,60.37
2017-11-18T00:46:32.188Z,60.66
2017-11-18T00:47:05.342Z,60.46
2017-11-18T00:47:38.668Z,60.85
2017-11-18T00:48:11.931Z,60.66
2017-11-18T00:48:44.770Z,60.75
2017-11-18T00:49:17.724Z,60.37
2017-11-18T00:49:50.945Z,60.75
2017-11-18T00:50:23.857Z,60.56
2017-11-18T00:50:57.046Z,60.56
2017-11-18T00:51:30.004Z,60.75
2017-11-18T00:52:02.929Z,60.85
2017-11-18T00:52:36.087Z,60.85
2017-11-18T00:53:09.116Z,60.85
2017-11-18T00:53:42.373Z,60.75
2017-11-18T00:54:15.497Z,60.75
2017-11-18T00:54:48.610Z,60.94
2017-11-18T00:55:21.661Z,60.75
2017-11-18T00:55:54.815Z,60.75
2017-11-18T00:56:27.839Z,60.85
2017-11-18T00:57:00.854Z,60.85
2017-11-18T00:57:33.851Z,60.85
2017-11-18T00:58:06.796Z,60.75
2017-11-18T00:58:39.682Z,60.56
2017-11-18T00:59:12.696Z,60.66
2017-11-18T00:59:45.685Z,60.75
2017-11-18T01:00:18.731Z,60.75
2017-11-18T01:00:51.616Z,60.66
2017-11-18T01:01:24.734Z,60.75
2017-11-18T01:01:57.716Z,60.75
2017-11-18T01:02:30.874Z,60.94
2017-11-18T01:03:03.902Z,60.75
2017-11-18T01:03:36.757Z,60.75
2017-11-18T01:04:09.845Z,60.85
2017-11-18T01:04:42.759Z,60.85
2017-11-18T01:05:15.749Z,60.66
2017-11-18T01:05:48.728Z,60.75
2017-11-18T01:06:21.819Z,60.46
2017-11-18T01:06:55.077Z,60.46
2017-11-18T01:07:28.008Z,60.75
2017-11-18T01:08:01.069Z,60.85
2017-11-18T01:08:34.252Z,60.66
2017-11-18T01:09:07.271Z,60.66
2017-11-18T01:09:40.155Z,60.75
2017-11-18T01:10:13.267Z,60.66
2017-11-18T01:10:46.196Z,60.75
2017-11-18T01:11:19.437Z,60.75
2017-11-18T01:11:52.425Z,60.66
2017-11-18T01:12:25.679Z,60.66
2017-11-18T01:12:58.908Z,60.66
2017-11-18T01:13:31.922Z,60.66
2017-11-18T01:14:04.916Z,60.66
2017-11-18T01:14:37.938Z,60.75
2017-11-18T01:15:11.064Z,60.75
2017-11-18T01:15:44.179Z,60.85
2017-11-18T01:16:17.368Z,60.75
2017-11-18T01:16:50.310Z,60.75
2017-11-18T01:17:23.236Z,60.66
2017-11-18T01:17:56.392Z,60.75
2017-11-18T01:18:29.419Z,60.66
2017-11-18T01:19:02.431Z,60.66
2017-11-18T01:19:35.423Z,60.46
2017-11-18T01:20:08.374Z,60.75
2017-11-18T01:20:41.303Z,60.75
2017-11-18T01:21:14.254Z,60.75
2017-11-18T01:21:47.180Z,60.46
2017-11-18T01:22:20.271Z,60.66
2017-11-18T01:22:53.196Z,60.75
2017-11-18T01:23:26.150Z,60.75
2017-11-18T01:23:59.277Z,60.66
2017-11-18T01:24:32.496Z,60.66
2017-11-18T01:25:05.618Z,60.56
2017-11-18T01:25:38.574Z,60.46
2017-11-18T01:26:11.801Z,60.56
2017-11-18T01:26:44.956Z,60.46
2017-11-18T01:27:17.943Z,60.46
2017-11-18T01:27:51.128Z,60.56
2017-11-18T01:28:24.361Z,60.56
2017-11-18T01:28:57.274Z,60.37
2017-11-18T01:29:30.401Z,60.56
2017-11-18T01:30:03.415Z,60.56
2017-11-18T01:30:36.499Z,60.66
2017-11-18T01:31:09.653Z,60.56
2017-11-18T01:31:42.535Z,60.46
2017-11-18T01:32:15.890Z,60.75
2017-11-18T01:32:48.975Z,60.37
2017-11-18T01:33:21.913Z,60.56
2017-11-18T01:33:54.941Z,60.56
2017-11-18T01:34:27.850Z,60.56
2017-11-18T01:35:00.874Z,60.56
2017-11-18T01:35:33.926Z,60.66
2017-11-18T01:36:06.956Z,60.37
2017-11-18T01:36:40.068Z,60.66
2017-11-18T01:37:13.297Z,60.56
2017-11-18T01:37:46.553Z,60.56
2017-11-18T01:38:19.842Z,60.56
2017-11-18T01:38:52.785Z,60.56
2017-11-18T01:39:25.868Z,60.56
2017-11-18T01:39:59.029Z,60.75
2017-11-18T01:40:32.016Z,60.56
2017-11-18T01:41:05.171Z,60.56
2017-11-18T01:41:38.304Z,60.56
2017-11-18T01:42:11.555Z,60.56
2017-11-18T01:42:44.447Z,60.75
2017-11-18T01:43:17.502Z,60.56
2017-11-18T01:43:50.693Z,60.75
2017-11-18T01:44:23.732Z,60.56
2017-11-18T01:44:56.856Z,60.56
2017-11-18T01:45:30.016Z,60.56
2017-11-18T01:46:02.940Z,60.85
2017-11-18T01:46:36.153Z,60.85
2017-11-18T01:47:09.039Z,60.66
2017-11-18T01:47:42.069Z,60.75
2017-11-18T01:48:15.054Z,60.94
2017-11-18T01:48:48.073Z,60.56
2017-11-18T01:49:20.960Z,60.75
2017-11-18T01:49:54.002Z,60.56
2017-11-18T01:50:27.030Z,60.85
2017-11-18T01:50:59.984Z,60.66
2017-11-18T01:51:32.913Z,60.85
2017-11-18T01:52:06.030Z,60.66
2017-11-18T01:52:39.158Z,60.85
2017-11-18T01:53:12.212Z,60.56
2017-11-18T01:53:45.340Z,60.94
2017-11-18T01:54:18.257Z,60.85
2017-11-18T01:54:51.335Z,60.94
2017-11-18T01:55:24.382Z,60.75
2017-11-18T01:55:57.267Z,60.85
2017-11-18T01:56:30.221Z,60.94
2017-11-18T01:57:03.251Z,60.85
2017-11-18T01:57:36.504Z,60.85
2017-11-18T01:58:09.629Z,61.04
2017-11-18T01:58:42.783Z,61.04
2017-11-18T01:59:15.915Z,60.94
2017-11-18T01:59:48.971Z,60.94
2017-11-18T02:00:21.853Z,61.04
2017-11-18T02:00:54.937Z,60.94
2017-11-18T02:01:27.862Z,61.04
2017-11-18T02:02:01.276Z,61.04
2017-11-18T02:02:34.202Z,61.23
2017-11-18T02:03:07.266Z,61.04
2017-11-18T02:03:40.153Z,61.04
2017-11-18T02:04:13.312Z,61.04
2017-11-18T02:04:46.541Z,61.04
2017-11-18T02:05:19.553Z,61.04
2017-11-18T02:05:52.485Z,61.23
2017-11-18T02:06:25.764Z,61.04
2017-11-18T02:06:58.852Z,61.04
2017-11-18T02:07:32.066Z,61.04
2017-11-18T02:08:05.056Z,60.94
2017-11-18T02:08:38.074Z,61.04
2017-11-18T02:09:11.212Z,61.04
2017-11-18T02:09:44.261Z,61.04
2017-11-18T02:10:17.249Z,61.04
2017-11-18T02:10:50.506Z,60.94
2017-11-18T02:11:23.391Z,61.04
2017-11-18T02:11:56.534Z,61.23
2017-11-18T02:12:29.460Z,61.04
2017-11-18T02:13:02.416Z,61.04
2017-11-18T02:13:35.542Z,61.14
2017-11-18T02:14:08.655Z,61.14
2017-11-18T02:14:41.543Z,61.04
2017-11-18T02:15:14.696Z,60.94
2017-11-18T02:15:47.580Z,60.94
2017-11-18T02:16:20.543Z,61.23
2017-11-18T02:16:53.468Z,61.04
2017-11-18T02:17:26.411Z,61.04
2017-11-18T02:17:59.397Z,60.94
2017-11-18T02:18:32.456Z,60.94
2017-11-18T02:19:05.580Z,61.04
2017-11-18T02:19:38.837Z,61.04
2017-11-18T02:20:11.919Z,60.66
2017-11-18T02:20:44.973Z,60.94
2017-11-18T02:21:18.060Z,60.66
2017-11-18T02:21:51.076Z,60.66
2017-11-18T02:22:24.204Z,60.85
2017-11-18T02:22:57.577Z,61.04
2017-11-18T02:23:30.661Z,61.04
2017-11-18T02:24:03.916Z,61.23
2017-11-18T02:24:36.838Z,60.85
2017-11-18T02:25:09.754Z,60.66
2017-11-18T02:25:42.780Z,60.75
2017-11-18T02:26:15.836Z,60.94
2017-11-18T02:26:49.160Z,61.04
2017-11-18T02:27:22.209Z,60.66
2017-11-18T02:27:55.234Z,61.04
2017-11-18T02:28:28.213Z,60.75
2017-11-18T02:29:01.100Z,60.85
2017-11-18T02:29:34.013Z,60.94
2017-11-18T02:30:06.908Z,60.85
2017-11-18T02:30:40.013Z,60.66
2017-11-18T02:31:13.239Z,60.66
2017-11-18T02:31:46.292Z,60.85
2017-11-18T02:32:19.316Z,60.85
2017-11-18T02:32:52.524Z,60.75
2017-11-18T02:33:25.450Z,61.04
2017-11-18T02:33:58.731Z,60.66
2017-11-18T02:34:32.027Z,60.75
2017-11-18T02:35:04.929Z,60.85
2017-11-18T02:35:37.914Z,60.66
2017-11-18T02:36:11.128Z,60.85
2017-11-18T02:36:44.011Z,60.85
2017-11-18T02:37:16.966Z,60.85
2017-11-18T02:37:50.150Z,60.85
2017-11-18T02:38:23.207Z,60.66
2017-11-18T02:38:56.190Z,60.85
2017-11-18T02:39:29.130Z,60.85
2017-11-18T02:40:02.313Z,60.75
2017-11-18T02:40:35.425Z,60.75
2017-11-18T02:41:08.449Z,60.66
2017-11-18T02:41:41.607Z,60.75
2017-11-18T02:42:14.788Z,60.75
2017-11-18T02:42:47.941Z,60.66
2017-11-18T02:43:20.932Z,60.66
2017-11-18T02:43:53.979Z,60.75
2017-11-18T02:44:27.202Z,60.75
2017-11-18T02:45:00.274Z,60.75
2017-11-18T02:45:33.363Z,60.46
2017-11-18T02:46:06.615Z,60.75
2017-11-18T02:46:39.704Z,60.85
2017-11-18T02:47:12.856Z,60.46
2017-11-18T02:47:45.983Z,60.75
2017-11-18T02:48:19.039Z,60.94
2017-11-18T02:48:52.064Z,60.56
2017-11-18T02:49:25.117Z,60.46
2017-11-18T02:49:58.426Z,60.75
2017-11-18T02:50:31.439Z,60.46
2017-11-18T02:51:04.571Z,60.85
2017-11-18T02:51:37.620Z,60.56
2017-11-18T02:52:10.742Z,60.46
2017-11-18T02:52:43.697Z,60.56
2017-11-18T02:53:16.723Z,60.75
2017-11-18T02:53:49.871Z,60.56
2017-11-18T02:54:23.055Z,60.56
2017-11-18T02:54:56.108Z,60.56
2017-11-18T02:55:29.359Z,60.56
2017-11-18T02:56:02.409Z,60.56
2017-11-18T02:56:35.300Z,60.56
2017-11-18T02:57:08.312Z,60.56
2017-11-18T02:57:41.466Z,60.75
2017-11-18T02:58:14.649Z,60.75
2017-11-18T02:58:47.728Z,60.56
2017-11-18T02:59:20.779Z,60.56
2017-11-18T02:59:53.942Z,60.75
2017-11-18T03:00:27.014Z,60.85
2017-11-18T03:01:00.068Z,60.56
2017-11-18T03:01:33.276Z,60.85
2017-11-18T03:02:06.201Z,60.85
2017-11-18T03:02:39.413Z,60.56
2017-11-18T03:03:12.339Z,60.94
2017-11-18T03:03:45.543Z,60.46
2017-11-18T03:04:18.532Z,60.56
2017-11-18T03:04:51.487Z,60.94
2017-11-18T03:05:24.810Z,60.46
2017-11-18T03:05:57.819Z,60.46
2017-11-18T03:06:30.873Z,60.56
2017-11-18T03:07:03.831Z,60.56
2017-11-18T03:07:36.752Z,60.56
2017-11-18T03:08:09.803Z,60.75
2017-11-18T03:08:42.932Z,60.56
2017-11-18T03:09:16.079Z,60.56
2017-11-18T03:09:49.061Z,60.56
2017-11-18T03:10:22.176Z,60.66
2017-11-18T03:10:55.059Z,60.56
2017-11-18T03:11:28.072Z,60.75
2017-11-18T03:12:01.120Z,60.75
2017-11-18T03:12:34.074Z,60.75
2017-11-18T03:13:07.196Z,60.75
2017-11-18T03:13:40.246Z,60.66
2017-11-18T03:14:13.274Z,60.56
2017-11-18T03:14:46.226Z,60.56
2017-11-18T03:15:19.456Z,60.66
2017-11-18T03:15:52.802Z,60.56
2017-11-18T03:16:25.689Z,60.56
2017-11-18T03:16:58.626Z,60.75
2017-11-18T03:17:31.555Z,60.75
2017-11-18T03:18:04.516Z,60.56
2017-11-18T03:18:37.442Z,60.94
2017-11-18T03:19:10.596Z,60.66
2017-11-18T03:19:43.683Z,60.46
2017-11-18T03:20:16.739Z,60.85
2017-11-18T03:20:49.733Z,60.85
2017-11-18T03:21:22.878Z,60.94
2017-11-18T03:21:56.107Z,60.75
2017-11-18T03:22:29.288Z,60.94
2017-11-18T03:23:02.271Z,60.66
2017-11-18T03:23:35.386Z,60.94
2017-11-18T03:24:08.373Z,60.94
2017-11-18T03:24:41.431Z,60.66
2017-11-18T03:25:14.410Z,60.75
2017-11-18T03:25:48.663Z,60.66
2017-11-18T03:26:21.797Z,60.94
2017-11-18T03:26:54.708Z,60.75
2017-11-18T03:27:27.834Z,60.75
2017-11-18T03:28:00.816Z,60.94
2017-11-18T03:28:34.040Z,60.66
2017-11-18T03:29:07.299Z,60.75
2017-11-18T03:29:40.382Z,60.56
2017-11-18T03:30:13.334Z,60.56
2017-11-18T03:30:46.461Z,60.66
2017-11-18T03:31:19.470Z,60.75
2017-11-18T03:31:52.597Z,60.75
2017-11-18T03:32:25.507Z,60.85
2017-11-18T03:32:58.830Z,60.75
2017-11-18T03:33:31.770Z,60.75
2017-11-18T03:34:04.895Z,60.75
2017-11-18T03:34:37.844Z,60.56
2017-11-18T03:35:11.031Z,60.75
2017-11-18T03:35:43.946Z,60.66
2017-11-18T03:36:17.033Z,60.75
2017-11-18T03:36:50.288Z,60.94
2017-11-18T03:37:23.414Z,60.85
2017-11-18T03:37:56.565Z,60.66
2017-11-18T03:38:29.549Z,60.75
2017-11-18T03:39:02.826Z,60.75
2017-11-18T03:39:35.915Z,60.75
2017-11-18T03:40:09.068Z,60.75
2017-11-18T03:40:42.191Z,60.75
2017-11-18T03:41:15.351Z,60.56
2017-11-18T03:41:48.279Z,60.85
2017-11-18T03:42:21.326Z,60.66
2017-11-18T03:42:54.352Z,60.75
2017-11-18T03:43:27.604Z,60.75
2017-11-18T03:44:00.917Z,60.75
2017-11-18T03:44:34.029Z,60.66
2017-11-18T03:45:07.055Z,60.75
2017-11-18T03:45:40.305Z,60.75
2017-11-18T03:46:13.330Z,60.66
2017-11-18T03:46:46.341Z,60.75
2017-11-18T03:47:19.473Z,60.75
2017-11-18T03:47:52.424Z,60.75
2017-11-18T03:48:25.544Z,61.14
2017-11-18T03:48:58.498Z,60.75
2017-11-18T03:49:31.609Z,61.14
2017-11-18T03:50:04.623Z,60.85
2017-11-18T03:50:37.749Z,60.85
2017-11-18T03:51:10.864Z,60.85
2017-11-18T03:51:43.747Z,61.14
2017-11-18T03:52:17.098Z,60.94
2017-11-18T03:52:50.283Z,61.04
2017-11-18T03:53:23.292Z,61.04
2017-11-18T03:53:56.376Z,60.85
2017-11-18T03:54:29.728Z,60.94
2017-11-18T03:55:02.846Z,61.14
2017-11-18T03:55:35.856Z,60.94
2017-11-18T03:56:08.781Z,61.04
2017-11-18T03:56:41.794Z,61.14
2017-11-18T03:57:14.676Z,60.94
2017-11-18T03:57:47.889Z,60.85
2017-11-18T03:58:21.173Z,60.94
2017-11-18T03:58:54.227Z,60.94
2017-11-18T03:59:27.413Z,60.85
2017-11-18T04:00:00.671Z,61.14
2017-11-18T04:00:33.876Z,60.94
2017-11-18T04:01:06.927Z,60.94
2017-11-18T04:01:39.950Z,60.85
2017-11-18T04:02:13.104Z,61.14
2017-11-18T04:02:46.090Z,60.94
2017-11-18T04:03:19.243Z,60.85
2017-11-18T04:03:52.169Z,60.85
2017-11-18T04:04:25.223Z,60.94
2017-11-18T04:04:58.306Z,60.85
2017-11-18T04:05:31.317Z,60.85
2017-11-18T04:06:04.525Z,60.94
2017-11-18T04:06:37.539Z,60.94
2017-11-18T04:07:10.522Z,60.85
2017-11-18T04:07:43.650Z,60.85
2017-11-18T04:08:16.934Z,60.94
2017-11-18T04:08:50.086Z,60.85
2017-11-18T04:09:23.110Z,60.85
2017-11-18T04:09:56.261Z,60.85
2017-11-18T04:10:29.387Z,60.85
2017-11-18T04:11:02.672Z,60.85
2017-11-18T04:11:35.900Z,60.85
2017-11-18T04:12:08.952Z,60.85
2017-11-18T04:12:41.977Z,60.75
2017-11-18T04:13:15.128Z,60.85
2017-11-18T04:13:48.217Z,60.85
2017-11-18T04:14:21.278Z,60.66
2017-11-18T04:14:54.355Z,60.85
2017-11-18T04:15:27.266Z,60.85
2017-11-18T04:16:00.252Z,60.85
2017-11-18T04:16:33.230Z,60.85
2017-11-18T04:17:06.157Z,60.85
2017-11-18T04:17:39.406Z,61.04
2017-11-18T04:18:12.431Z,60.85
2017-11-18T04:18:45.640Z,60.85
2017-11-18T04:19:18.569Z,60.85
2017-11-18T04:19:51.724Z,60.85
2017-11-18T04:20:24.851Z,60.66
2017-11-18T04:20:58.204Z,61.04
2017-11-18T04:21:31.391Z,60.85
2017-11-18T04:22:04.631Z,60.66
2017-11-18T04:22:37.855Z,60.85
2017-11-18T04:23:11.206Z,60.94
2017-11-18T04:23:44.092Z,61.04
2017-11-18T04:24:17.202Z,60.85
2017-11-18T04:24:50.341Z,60.85
2017-11-18T04:25:23.387Z,60.85
2017-11-18T04:25:56.374Z,61.04
2017-11-18T04:26:29.623Z,60.66
2017-11-18T04:27:02.547Z,60.66
2017-11-18T04:27:35.886Z,61.04
2017-11-18T04:28:08.810Z,60.75
2017-11-18T04:28:41.860Z,60.85
2017-11-18T04:29:15.087Z,60.75
2017-11-18T04:29:48.342Z,60.66
2017-11-18T04:30:21.429Z,60.85
2017-11-18T04:30:54.479Z,60.75
2017-11-18T04:31:27.506Z,60.85
2017-11-18T04:32:00.656Z,60.85
2017-11-18T04:32:33.739Z,60.66
2017-11-18T04:33:07.075Z,60.85
2017-11-18T04:33:40.163Z,60.75
2017-11-18T04:34:13.116Z,60.75
2017-11-18T04:34:46.206Z,60.75
2017-11-18T04:35:19.316Z,60.85
2017-11-18T04:35:52.301Z,60.75
2017-11-18T04:36:25.309Z,60.85
2017-11-18T04:36:58.293Z,60.85
2017-11-18T04:37:31.409Z,60.75
2017-11-18T04:38:04.721Z,60.85
2017-11-18T04:38:37.635Z,60.75
2017-11-18T04:39:10.719Z,60.75
2017-11-18T04:39:43.629Z,60.85
2017-11-18T04:40:16.652Z,60.85
2017-11-18T04:40:49.806Z,60.85
2017-11-18T04:41:22.896Z,60.94
2017-11-18T04:41:56.344Z,60.75
2017-11-18T04:42:29.330Z,60.75
2017-11-18T04:43:02.542Z,60.75
2017-11-18T04:43:35.793Z,60.85
2017-11-18T04:44:08.945Z,60.66
2017-11-18T04:44:41.933Z,60.75
2017-11-18T04:45:14.988Z,60.66
2017-11-18T04:45:48.072Z,60.66
2017-11-18T04:46:21.225Z,60.85
2017-11-18T04:46:54.149Z,60.75
2017-11-18T04:47:27.060Z,60.85
2017-11-18T04:48:00.047Z,60.85
2017-11-18T04:48:33.060Z,60.85
2017-11-18T04:49:06.273Z,60.85
2017-11-18T04:49:39.284Z,61.04
2017-11-18T04:50:12.667Z,60.66
2017-11-18T04:50:45.689Z,60.75
2017-11-18T04:51:18.612Z,60.66
2017-11-18T04:51:51.660Z,60.85
2017-11-18T04:52:24.584Z,61.04
2017-11-18T04:52:57.544Z,60.66
2017-11-18T04:53:30.727Z,60.66
2017-11-18T04:54:03.879Z,60.85
2017-11-18T04:54:36.992Z,60.66
2017-11-18T04:55:10.047Z,60.66
2017-11-18T04:55:43.271Z,60.66
2017-11-18T04:56:16.522Z,61.04
2017-11-18T04:56:49.555Z,60.75
2017-11-18T04:57:22.666Z,61.04
2017-11-18T04:57:55.990Z,61.04
2017-11-18T04:58:29.104Z,60.66
2017-11-18T04:59:02.028Z,61.04
2017-11-18T04:59:35.039Z,60.85
2017-11-18T05:00:08.150Z,60.66
2017-11-18T05:00:41.208Z,60.66
2017-11-18T05:01:14.196Z,60.85
2017-11-18T05:01:47.303Z,60.85
2017-11-18T05:02:20.329Z,61.04
2017-11-18T05:02:53.491Z,60.66
2017-11-18T05:03:26.672Z,60.75
2017-11-18T05:03:59.827Z,60.85
2017-11-18T05:04:32.820Z,60.85
2017-11-18T05:05:05.926Z,61.04
2017-11-18T05:05:39.175Z,60.85
2017-11-18T05:06:12.331Z,60.66
2017-11-18T05:06:45.456Z,60.75
2017-11-18T05:07:18.463Z,60.66
2017-11-18T05:07:51.349Z,60.85
2017-11-18T05:08:24.507Z,61.04
2017-11-18T05:08:57.594Z,61.23
2017-11-18T05:09:30.643Z,61.04
2017-11-18T05:10:03.834Z,60.75
2017-11-18T05:10:36.873Z,61.14
2017-11-18T05:11:10.024Z,60.66
2017-11-18T05:11:43.175Z,61.04
2017-11-18T05:12:16.207Z,61.04
2017-11-18T05:12:49.421Z,61.04
2017-11-18T05:13:22.309Z,61.33
2017-11-18T05:13:55.518Z,60.85
2017-11-18T05:14:28.503Z,61.14
2017-11-18T05:15:01.652Z,61.14
2017-11-18T05:15:34.842Z,60.66
2017-11-18T05:16:07.896Z,61.04
2017-11-18T05:16:40.843Z,60.75
2017-11-18T05:17:13.794Z,60.66
2017-11-18T05:17:46.920Z,60.66
2017-11-18T05:18:19.872Z,61.04
2017-11-18T05:18:52.856Z,61.33
2017-11-18T05:19:26.069Z,61.04
2017-11-18T05:19:58.959Z,61.23
2017-11-18T05:20:31.906Z,61.04
2017-11-18T05:21:04.891Z,60.66
2017-11-18T05:21:38.144Z,61.23
2017-11-18T05:22:11.453Z,61.23
2017-11-18T05:22:44.501Z,60.75
2017-11-18T05:23:17.591Z,60.75
2017-11-18T05:23:50.705Z,61.04
2017-11-18T05:24:23.932Z,61.14
2017-11-18T05:24:57.044Z,61.33
2017-11-18T05:25:29.940Z,61.23
2017-11-18T05:26:02.984Z,60.66
2017-11-18T05:26:35.970Z,61.04
2017-11-18T05:27:08.984Z,61.04
2017-11-18T05:27:41.935Z,60.75
2017-11-18T05:28:15.187Z,60.66
2017-11-18T05:28:48.175Z,60.75
2017-11-18T05:29:21.185Z,60.66
2017-11-18T05:29:54.166Z,61.04
2017-11-18T05:30:27.418Z,61.14
2017-11-18T05:31:00.543Z,61.04
2017-11-18T05:31:33.497Z,61.14
2017-11-18T05:32:06.390Z,61.23
2017-11-18T05:32:39.333Z,61.23
2017-11-18T05:33:12.247Z,61.04
2017-11-18T05:33:45.409Z,61.04
2017-11-18T05:34:18.623Z,61.14
2017-11-18T05:34:51.839Z,61.33
2017-11-18T05:35:24.823Z,61.23
2017-11-18T05:35:58.074Z,61.23
2017-11-18T05:36:31.396Z,61.33
2017-11-18T05:37:04.432Z,60.94
2017-11-18T05:37:37.458Z,61.43
2017-11-18T05:38:10.509Z,61.04
2017-11-18T05:38:43.555Z,61.43
2017-11-18T05:39:16.612Z,61.04
2017-11-18T05:39:49.630Z,61.33
2017-11-18T05:40:22.543Z,61.14
2017-11-18T05:40:55.630Z,61.23
2017-11-18T05:41:28.680Z,61.04
2017-11-18T05:42:01.603Z,61.14
2017-11-18T05:42:34.766Z,60.75
2017-11-18T05:43:07.742Z,61.23
2017-11-18T05:43:40.920Z,60.66
2017-11-18T05:44:14.044Z,61.14
2017-11-18T05:44:47.257Z,61.14
2017-11-18T05:45:20.284Z,61.43
2017-11-18T05:45:53.535Z,61.23
2017-11-18T05:46:26.564Z,61.14
2017-11-18T05:46:59.779Z,61.23
2017-11-18T05:47:33.098Z,61.33
2017-11-18T05:48:06.154Z,60.94
2017-11-18T05:48:39.181Z,61.23
2017-11-18T05:49:12.262Z,60.94
2017-11-18T05:49:45.186Z,60.75
2017-11-18T05:50:18.300Z,60.94
2017-11-18T05:50:51.189Z,60.75
2017-11-18T05:51:24.138Z,61.04
2017-11-18T05:51:57.121Z,61.23
2017-11-18T05:52:30.135Z,61.23
2017-11-18T05:53:03.359Z,61.14
2017-11-18T05:53:36.517Z,61.33
2017-11-18T05:54:09.602Z,61.23
2017-11-18T05:54:42.546Z,61.14
2017-11-18T05:55:15.770Z,61.14
2017-11-18T05:55:48.723Z,60.75
2017-11-18T05:56:21.613Z,61.23
2017-11-18T05:56:54.665Z,61.14
2017-11-18T05:57:27.745Z,60.75
2017-11-18T05:58:00.665Z,60.94
2017-11-18T05:58:33.786Z,60.94
2017-11-18T05:59:07.001Z,61.14
2017-11-18T05:59:39.884Z,61.23
2017-11-18T06:00:12.925Z,61.43
2017-11-18T06:00:45.949Z,60.94
2017-11-18T06:01:19.102Z,60.94
2017-11-18T06:01:52.085Z,61.33
2017-11-18T06:02:25.139Z,61.04
2017-11-18T06:02:58.322Z,61.23
2017-11-18T06:03:31.277Z,61.14
2017-11-18T06:04:04.263Z,60.94
2017-11-18T06:04:37.320Z,61.04
2017-11-18T06:05:10.301Z,61.04
2017-11-18T06:05:43.238Z,61.14
2017-11-18T06:06:16.323Z,61.04
2017-11-18T06:06:49.575Z,61.33
2017-11-18T06:07:22.460Z,61.04
2017-11-18T06:07:55.514Z,61.52
2017-11-18T06:08:28.597Z,61.14
2017-11-18T06:09:01.748Z,61.14
2017-11-18T06:09:34.871Z,61.14
2017-11-18T06:10:07.784Z,60.94
2017-11-18T06:10:40.993Z,61.14
2017-11-18T06:11:14.006Z,61.14
2017-11-18T06:11:47.033Z,61.14
2017-11-18T06:12:20.087Z,61.04
2017-11-18T06:12:53.171Z,61.14
2017-11-18T06:13:26.085Z,61.14
2017-11-18T06:13:59.269Z,61.04
2017-11-18T06:14:32.478Z,60.94
2017-11-18T06:15:05.462Z,60.94
2017-11-18T06:15:38.517Z,61.23
2017-11-18T06:16:11.671Z,61.04
2017-11-18T06:16:44.823Z,60.94
2017-11-18T06:17:18.112Z,60.94
2017-11-18T06:17:51.024Z,61.14
2017-11-18T06:18:24.205Z,60.94
2017-11-18T06:18:57.219Z,61.14
2017-11-18T06:19:30.204Z,61.14
2017-11-18T06:20:03.356Z,61.23
2017-11-18T06:20:36.481Z,61.23
2017-11-18T06:21:09.494Z,61.14
2017-11-18T06:21:42.549Z,61.04
2017-11-18T06:22:15.603Z,61.23
2017-11-18T06:22:48.836Z,61.14
2017-11-18T06:23:21.892Z,60.94
2017-11-18T06:23:55.217Z,61.14
2017-11-18T06:24:28.365Z,61.33
2017-11-18T06:25:01.389Z,61.43
2017-11-18T06:25:34.445Z,61.43
2017-11-18T06:26:07.768Z,61.33
2017-11-18T06:26:40.779Z,61.23
2017-11-18T06:27:13.831Z,61.33
2017-11-18T06:27:46.781Z,61.04
2017-11-18T06:28:19.863Z,61.23
2017-11-18T06:28:52.916Z,61.23
2017-11-18T06:29:25.901Z,61.23
2017-11-18T06:29:59.011Z,61.23
2017-11-18T06:30:32.136Z,61.71
2017-11-18T06:31:05.288Z,61.61
2017-11-18T06:31:38.471Z,61.33
2017-11-18T06:32:11.723Z,61.33
2017-11-18T06:32:44.874Z,61.33
2017-11-18T06:33:18.027Z,61.33
2017-11-18T06:33:51.015Z,61.33
2017-11-18T06:34:24.204Z,61.23
2017-11-18T06:34:57.511Z,61.33
2017-11-18T06:35:30.462Z,61.23
2017-11-18T06:36:03.577Z,61.04
2017-11-18T06:36:36.797Z,61.14
2017-11-18T06:37:09.879Z,61.52
2017-11-18T06:37:42.922Z,61.61
2017-11-18T06:38:15.834Z,61.04
2017-11-18T06:38:48.932Z,61.61
2017-11-18T06:39:22.157Z,61.91
2017-11-18T06:39:55.407Z,61.81
2017-11-18T06:40:28.498Z,61.91
2017-11-18T06:41:01.613Z,61.33
2017-11-18T06:41:34.735Z,61.91
2017-11-18T06:42:07.686Z,61.91
2017-11-18T06:42:40.671Z,61.43
2017-11-18T06:43:14.010Z,61.52
2017-11-18T06:43:47.033Z,61.33
2017-11-18T06:44:20.183Z,61.61
2017-11-18T06:44:53.070Z,61.91
2017-11-18T06:45:26.280Z,61.61
2017-11-18T06:45:59.303Z,62.00
2017-11-18T06:46:32.316Z,62.00
2017-11-18T06:47:05.345Z,61.61
2017-11-18T06:47:38.396Z,61.91
2017-11-18T06:48:11.480Z,62.19
2017-11-18T06:48:44.621Z,62.00
2017-11-18T06:49:17.703Z,62.00
2017-11-18T06:49:50.916Z,61.61
2017-11-18T06:50:24.102Z,61.91
2017-11-18T06:50:57.161Z,61.91
2017-11-18T06:51:30.237Z,61.71
2017-11-18T06:52:03.689Z,61.91
2017-11-18T06:52:36.775Z,61.71
2017-11-18T06:53:09.824Z,61.91
2017-11-18T06:53:42.954Z,61.81
2017-11-18T06:54:16.095Z,61.91
2017-11-18T06:54:49.076Z,61.71
2017-11-18T06:55:22.129Z,61.71
2017-11-18T06:55:55.254Z,61.91
2017-11-18T06:56:28.509Z,61.81
2017-11-18T06:57:01.434Z,61.71
2017-11-18T06:57:34.291Z,61.71
2017-11-18T06:58:07.417Z,61.91
2017-11-18T06:58:40.527Z,61.91
2017-11-18T06:59:13.749Z,61.81
2017-11-18T06:59:47.022Z,61.81
2017-11-18T07:00:20.209Z,61.81
2017-11-18T07:00:53.256Z,61.91
2017-11-18T07:01:26.581Z,62.00
2017-11-18T07:01:59.592Z,61.81
2017-11-18T07:02:32.481Z,61.91
2017-11-18T07:03:05.832Z,61.81
2017-11-18T07:03:38.758Z,62.00
2017-11-18T07:04:12.010Z,61.81
2017-11-18T07:04:45.162Z,62.10
2017-11-18T07:05:18.176Z,61.91
2017-11-18T07:05:51.155Z,62.10